sensor_id;sensor_type;location;lat;lon;timestamp;temperature;humidity
17998;DHT22;9124;48.144;17.098;2022-07-29T00:00:03;22.30;60.70
17998;DHT22;9124;48.144;17.098;2022-07-29T00:03:41;22.30;60.90
17998;DHT22;9124;48.144;17.098;2022-07-29T00:07:18;22.40;61.10
17998;DHT22;9124;48.144;17.098;2022-07-29T00:10:54;22.40;60.70
17998;DHT22;9124;48.144;17.098;2022-07-29T00:14:31;22.40;60.50
17998;DHT22;9124;48.144;17.098;2022-07-29T00:18:08;22.40;60.50
17998;DHT22;9124;48.144;17.098;2022-07-29T00:21:45;22.40;60.50
17998;DHT22;9124;48.144;17.098;2022-07-29T00:25:22;22.40;60.30
17998;DHT22;9124;48.144;17.098;2022-07-29T00:29:00;22.40;60.20
17998;DHT22;9124;48.144;17.098;2022-07-29T00:32:37;22.30;60.10
17998;DHT22;9124;48.144;17.098;2022-07-29T00:36:14;22.30;60.10
17998;DHT22;9124;48.144;17.098;2022-07-29T00:39:51;22.30;60.00
17998;DHT22;9124;48.144;17.098;2022-07-29T00:43:28;22.30;60.00
17998;DHT22;9124;48.144;17.098;2022-07-29T00:47:05;22.20;60.00
17998;DHT22;9124;48.144;17.098;2022-07-29T00:50:42;22.20;60.20
17998;DHT22;9124;48.144;17.098;2022-07-29T00:54:19;22.20;60.20
17998;DHT22;9124;48.144;17.098;2022-07-29T00:57:57;22.20;60.30
17998;DHT22;9124;48.144;17.098;2022-07-29T01:01:34;22.10;60.30
17998;DHT22;9124;48.144;17.098;2022-07-29T01:05:11;22.10;60.40
17998;DHT22;9124;48.144;17.098;2022-07-29T01:08:49;22.00;60.60
17998;DHT22;9124;48.144;17.098;2022-07-29T01:12:29;22.00;60.60
17998;DHT22;9124;48.144;17.098;2022-07-29T01:16:15;22.00;60.80
17998;DHT22;9124;48.144;17.098;2022-07-29T01:27:51;21.90;61.10
17998;DHT22;9124;48.144;17.098;2022-07-29T01:32:07;21.80;61.10
17998;DHT22;9124;48.144;17.098;2022-07-29T01:35:46;21.80;61.30
17998;DHT22;9124;48.144;17.098;2022-07-29T01:39:27;21.70;61.40
17998;DHT22;9124;48.144;17.098;2022-07-29T01:43:12;21.70;61.60
17998;DHT22;9124;48.144;17.098;2022-07-29T01:46:57;21.70;61.70
17998;DHT22;9124;48.144;17.098;2022-07-29T01:51:21;21.80;61.90
17998;DHT22;9124;48.144;17.098;2022-07-29T01:54:56;21.80;61.80
17998;DHT22;9124;48.144;17.098;2022-07-29T01:58:35;21.80;61.90
17998;DHT22;9124;48.144;17.098;2022-07-29T02:02:16;21.70;61.80
17998;DHT22;9124;48.144;17.098;2022-07-29T02:05:53;21.80;62.00
17998;DHT22;9124;48.144;17.098;2022-07-29T02:09:35;21.70;61.90
17998;DHT22;9124;48.144;17.098;2022-07-29T02:13:13;21.70;62.00
17998;DHT22;9124;48.144;17.098;2022-07-29T02:16:54;21.70;62.00
17998;DHT22;9124;48.144;17.098;2022-07-29T02:20:33;21.60;62.10
17998;DHT22;9124;48.144;17.098;2022-07-29T02:24:12;21.60;62.20
17998;DHT22;9124;48.144;17.098;2022-07-29T02:27:51;21.60;62.30
17998;DHT22;9124;48.144;17.098;2022-07-29T02:31:32;21.60;62.40
17998;DHT22;9124;48.144;17.098;2022-07-29T02:35:11;21.50;62.50
17998;DHT22;9124;48.144;17.098;2022-07-29T02:38:50;21.50;62.60
17998;DHT22;9124;48.144;17.098;2022-07-29T02:42:28;21.50;62.70
17998;DHT22;9124;48.144;17.098;2022-07-29T02:46:11;21.50;63.40
17998;DHT22;9124;48.144;17.098;2022-07-29T02:53:48;21.60;63.10
17998;DHT22;9124;48.144;17.098;2022-07-29T02:57:33;21.50;63.00
17998;DHT22;9124;48.144;17.098;2022-07-29T03:01:16;21.50;63.20
17998;DHT22;9124;48.144;17.098;2022-07-29T03:04:58;21.50;63.30
17998;DHT22;9124;48.144;17.098;2022-07-29T03:08:36;21.50;63.40
17998;DHT22;9124;48.144;17.098;2022-07-29T03:12:14;21.50;63.60
17998;DHT22;9124;48.144;17.098;2022-07-29T03:15:52;21.50;63.70
17998;DHT22;9124;48.144;17.098;2022-07-29T03:19:31;21.50;63.80
17998;DHT22;9124;48.144;17.098;2022-07-29T03:23:08;21.50;63.90
17998;DHT22;9124;48.144;17.098;2022-07-29T03:26:45;21.50;64.00
17998;DHT22;9124;48.144;17.098;2022-07-29T03:30:22;21.50;64.10
17998;DHT22;9124;48.144;17.098;2022-07-29T03:33:59;21.50;64.20
17998;DHT22;9124;48.144;17.098;2022-07-29T03:37:36;21.50;64.30
17998;DHT22;9124;48.144;17.098;2022-07-29T03:41:13;21.50;64.40
17998;DHT22;9124;48.144;17.098;2022-07-29T03:44:51;21.50;64.60
17998;DHT22;9124;48.144;17.098;2022-07-29T03:48:31;21.50;64.60
17998;DHT22;9124;48.144;17.098;2022-07-29T03:52:09;21.50;64.70
17998;DHT22;9124;48.144;17.098;2022-07-29T03:55:50;21.50;64.70
17998;DHT22;9124;48.144;17.098;2022-07-29T03:59:30;21.60;64.80
17998;DHT22;9124;48.144;17.098;2022-07-29T04:03:09;21.60;64.80
17998;DHT22;9124;48.144;17.098;2022-07-29T04:06:46;21.60;64.80
17998;DHT22;9124;48.144;17.098;2022-07-29T04:10:24;21.70;64.80
17998;DHT22;9124;48.144;17.098;2022-07-29T04:14:00;21.70;64.80
17998;DHT22;9124;48.144;17.098;2022-07-29T04:17:37;21.80;64.70
17998;DHT22;9124;48.144;17.098;2022-07-29T04:21:14;21.90;64.70
17998;DHT22;9124;48.144;17.098;2022-07-29T04:24:51;22.00;64.60
17998;DHT22;9124;48.144;17.098;2022-07-29T04:28:27;22.10;64.50
17998;DHT22;9124;48.144;17.098;2022-07-29T04:32:05;22.10;64.40
17998;DHT22;9124;48.144;17.098;2022-07-29T04:35:41;22.20;64.40
17998;DHT22;9124;48.144;17.098;2022-07-29T04:39:18;22.30;64.20
17998;DHT22;9124;48.144;17.098;2022-07-29T04:42:55;22.30;64.10
17998;DHT22;9124;48.144;17.098;2022-07-29T04:46:32;22.40;64.10
17998;DHT22;9124;48.144;17.098;2022-07-29T04:50:09;22.40;63.80
17998;DHT22;9124;48.144;17.098;2022-07-29T04:53:47;22.50;63.80
17998;DHT22;9124;48.144;17.098;2022-07-29T04:57:23;22.60;63.60
17998;DHT22;9124;48.144;17.098;2022-07-29T05:01:01;22.70;63.50
17998;DHT22;9124;48.144;17.098;2022-07-29T05:04:37;22.80;63.30
17998;DHT22;9124;48.144;17.098;2022-07-29T05:08:14;23.00;63.10
17998;DHT22;9124;48.144;17.098;2022-07-29T05:11:51;23.10;62.70
17998;DHT22;9124;48.144;17.098;2022-07-29T05:15:28;23.20;62.50
17998;DHT22;9124;48.144;17.098;2022-07-29T05:19:04;23.30;62.20
17998;DHT22;9124;48.144;17.098;2022-07-29T05:22:41;23.40;62.00
17998;DHT22;9124;48.144;17.098;2022-07-29T05:26:18;23.50;61.70
17998;DHT22;9124;48.144;17.098;2022-07-29T05:29:55;23.60;61.40
17998;DHT22;9124;48.144;17.098;2022-07-29T05:33:32;23.70;61.00
17998;DHT22;9124;48.144;17.098;2022-07-29T05:37:09;23.80;60.80
17998;DHT22;9124;48.144;17.098;2022-07-29T05:40:46;24.00;60.60
17998;DHT22;9124;48.144;17.098;2022-07-29T05:44:23;24.00;60.10
17998;DHT22;9124;48.144;17.098;2022-07-29T05:47:59;24.10;59.90
17998;DHT22;9124;48.144;17.098;2022-07-29T05:51:37;24.30;59.80
17998;DHT22;9124;48.144;17.098;2022-07-29T05:55:13;24.50;59.40
17998;DHT22;9124;48.144;17.098;2022-07-29T05:58:50;24.80;58.80
17998;DHT22;9124;48.144;17.098;2022-07-29T06:02:27;25.00;58.30
17998;DHT22;9124;48.144;17.098;2022-07-29T06:06:04;25.30;57.90
17998;DHT22;9124;48.144;17.098;2022-07-29T06:09:42;25.50;57.40
17998;DHT22;9124;48.144;17.098;2022-07-29T06:13:19;25.60;57.10
17998;DHT22;9124;48.144;17.098;2022-07-29T06:16:56;25.80;56.60
17998;DHT22;9124;48.144;17.098;2022-07-29T06:25:12;26.30;55.80
17998;DHT22;9124;48.144;17.098;2022-07-29T06:28:49;26.50;55.50
17998;DHT22;9124;48.144;17.098;2022-07-29T06:32:25;26.60;55.10
17998;DHT22;9124;48.144;17.098;2022-07-29T06:36:06;26.90;54.80
17998;DHT22;9124;48.144;17.098;2022-07-29T06:39:42;27.10;54.20
17998;DHT22;9124;48.144;17.098;2022-07-29T06:43:19;27.50;53.90
17998;DHT22;9124;48.144;17.098;2022-07-29T06:46:56;28.30;53.20
17998;DHT22;9124;48.144;17.098;2022-07-29T06:50:33;29.40;51.80
17998;DHT22;9124;48.144;17.098;2022-07-29T06:54:10;30.20;50.50
17998;DHT22;9124;48.144;17.098;2022-07-29T06:57:47;30.60;49.50
17998;DHT22;9124;48.144;17.098;2022-07-29T07:01:23;31.00;48.20
17998;DHT22;9124;48.144;17.098;2022-07-29T07:05:00;32.00;46.20
17998;DHT22;9124;48.144;17.098;2022-07-29T07:08:37;33.00;45.30
17998;DHT22;9124;48.144;17.098;2022-07-29T07:12:14;34.00;44.20
17998;DHT22;9124;48.144;17.098;2022-07-29T07:15:50;34.60;42.70
17998;DHT22;9124;48.144;17.098;2022-07-29T07:19:28;35.30;41.60
17998;DHT22;9124;48.144;17.098;2022-07-29T07:23:05;36.00;40.70
17998;DHT22;9124;48.144;17.098;2022-07-29T07:26:42;38.00;39.40
17998;DHT22;9124;48.144;17.098;2022-07-29T07:30:18;41.80;37.20
17998;DHT22;9124;48.144;17.098;2022-07-29T07:33:55;43.20;33.70
17998;DHT22;9124;48.144;17.098;2022-07-29T07:37:32;43.90;32.20
17998;DHT22;9124;48.144;17.098;2022-07-29T07:41:09;44.80;30.20
17998;DHT22;9124;48.144;17.098;2022-07-29T07:44:45;43.40;30.40
17998;DHT22;9124;48.144;17.098;2022-07-29T07:48:24;43.20;30.00
17998;DHT22;9124;48.144;17.098;2022-07-29T07:52:01;44.10;29.40
17998;DHT22;9124;48.144;17.098;2022-07-29T07:55:41;44.60;29.00
17998;DHT22;9124;48.144;17.098;2022-07-29T07:59:17;44.50;28.80
17998;DHT22;9124;48.144;17.098;2022-07-29T08:02:55;44.80;28.70
17998;DHT22;9124;48.144;17.098;2022-07-29T08:06:31;44.10;28.90
17998;DHT22;9124;48.144;17.098;2022-07-29T08:10:08;44.50;28.80
17998;DHT22;9124;48.144;17.098;2022-07-29T08:13:45;45.00;28.50
17998;DHT22;9124;48.144;17.098;2022-07-29T08:17:26;43.00;28.40
17998;DHT22;9124;48.144;17.098;2022-07-29T08:21:30;40.40;29.20
17998;DHT22;9124;48.144;17.098;2022-07-29T08:25:10;38.30;30.80
17998;DHT22;9124;48.144;17.098;2022-07-29T08:28:47;37.10;31.90
17998;DHT22;9124;48.144;17.098;2022-07-29T08:32:31;36.50;32.90
17998;DHT22;9124;48.144;17.098;2022-07-29T08:36:13;38.50;32.60
17998;DHT22;9124;48.144;17.098;2022-07-29T08:39:50;39.00;32.20
17998;DHT22;9124;48.144;17.098;2022-07-29T08:43:28;38.60;32.00
17998;DHT22;9124;48.144;17.098;2022-07-29T08:47:05;38.00;32.40
17998;DHT22;9124;48.144;17.098;2022-07-29T08:50:43;39.60;31.60
17998;DHT22;9124;48.144;17.098;2022-07-29T08:54:23;41.90;30.70
17998;DHT22;9124;48.144;17.098;2022-07-29T08:58:00;44.00;29.20
17998;DHT22;9124;48.144;17.098;2022-07-29T09:01:38;45.80;28.40
17998;DHT22;9124;48.144;17.098;2022-07-29T09:05:16;46.60;27.70
17998;DHT22;9124;48.144;17.098;2022-07-29T09:08:53;45.00;27.50
17998;DHT22;9124;48.144;17.098;2022-07-29T09:12:30;44.00;27.80
17998;DHT22;9124;48.144;17.098;2022-07-29T09:16:07;43.80;27.80
17998;DHT22;9124;48.144;17.098;2022-07-29T09:19:44;42.70;28.40
17998;DHT22;9124;48.144;17.098;2022-07-29T09:23:22;41.30;28.90
17998;DHT22;9124;48.144;17.098;2022-07-29T09:26:59;40.70;29.40
17998;DHT22;9124;48.144;17.098;2022-07-29T09:30:53;41.10;29.70
17998;DHT22;9124;48.144;17.098;2022-07-29T09:34:29;43.10;29.00
17998;DHT22;9124;48.144;17.098;2022-07-29T09:38:13;43.10;28.80
17998;DHT22;9124;48.144;17.098;2022-07-29T09:41:52;45.30;27.40
17998;DHT22;9124;48.144;17.098;2022-07-29T09:45:32;46.00;27.00
17998;DHT22;9124;48.144;17.098;2022-07-29T09:49:10;47.80;26.40
17998;DHT22;9124;48.144;17.098;2022-07-29T09:52:50;49.30;25.70
17998;DHT22;9124;48.144;17.098;2022-07-29T09:56:42;51.00;24.90
17998;DHT22;9124;48.144;17.098;2022-07-29T10:00:20;52.40;24.30
17998;DHT22;9124;48.144;17.098;2022-07-29T10:03:58;53.40;24.00
17998;DHT22;9124;48.144;17.098;2022-07-29T10:07:49;54.00;23.50
17998;DHT22;9124;48.144;17.098;2022-07-29T10:11:26;53.80;23.30
17998;DHT22;9124;48.144;17.098;2022-07-29T10:15:03;52.50;23.30
17998;DHT22;9124;48.144;17.098;2022-07-29T10:18:44;50.90;23.60
17998;DHT22;9124;48.144;17.098;2022-07-29T10:22:23;51.60;23.50
17998;DHT22;9124;48.144;17.098;2022-07-29T10:26:00;49.20;23.90
17998;DHT22;9124;48.144;17.098;2022-07-29T10:29:37;46.20;25.00
17998;DHT22;9124;48.144;17.098;2022-07-29T10:37:07;40.40;27.80
17998;DHT22;9124;48.144;17.098;2022-07-29T10:41:08;38.80;29.30
17998;DHT22;9124;48.144;17.098;2022-07-29T10:45:03;38.00;29.80
17998;DHT22;9124;48.144;17.098;2022-07-29T10:49:16;37.30;30.70
17998;DHT22;9124;48.144;17.098;2022-07-29T10:52:54;36.40;31.60
17998;DHT22;9124;48.144;17.098;2022-07-29T10:56:34;35.70;32.60
17998;DHT22;9124;48.144;17.098;2022-07-29T11:03:51;34.40;34.00
17998;DHT22;9124;48.144;17.098;2022-07-29T11:07:33;34.20;34.50
17998;DHT22;9124;48.144;17.098;2022-07-29T11:14:58;35.10;34.60
17998;DHT22;9124;48.144;17.098;2022-07-29T11:18:35;35.10;34.30
17998;DHT22;9124;48.144;17.098;2022-07-29T11:22:32;34.80;34.40
17998;DHT22;9124;48.144;17.098;2022-07-29T11:26:16;34.90;34.60
17998;DHT22;9124;48.144;17.098;2022-07-29T11:29:56;35.00;34.80
17998;DHT22;9124;48.144;17.098;2022-07-29T11:33:33;35.30;34.40
17998;DHT22;9124;48.144;17.098;2022-07-29T11:41:23;35.00;34.30
17998;DHT22;9124;48.144;17.098;2022-07-29T11:48:46;34.70;34.40
17998;DHT22;9124;48.144;17.098;2022-07-29T11:52:32;34.90;34.60
17998;DHT22;9124;48.144;17.098;2022-07-29T11:56:08;35.00;34.30
17998;DHT22;9124;48.144;17.098;2022-07-29T11:59:47;35.00;34.50
17998;DHT22;9124;48.144;17.098;2022-07-29T12:03:25;35.00;34.50
17998;DHT22;9124;48.144;17.098;2022-07-29T12:07:03;35.10;34.80
17998;DHT22;9124;48.144;17.098;2022-07-29T12:10:41;35.00;34.40
17998;DHT22;9124;48.144;17.098;2022-07-29T12:14:32;34.50;34.90
17998;DHT22;9124;48.144;17.098;2022-07-29T12:18:13;34.30;35.20
17998;DHT22;9124;48.144;17.098;2022-07-29T12:21:53;34.30;35.10
17998;DHT22;9124;48.144;17.098;2022-07-29T12:25:33;34.80;35.00
17998;DHT22;9124;48.144;17.098;2022-07-29T12:29:15;35.30;34.80
17998;DHT22;9124;48.144;17.098;2022-07-29T12:32:53;35.40;34.40
17998;DHT22;9124;48.144;17.098;2022-07-29T12:36:32;34.90;34.10
17998;DHT22;9124;48.144;17.098;2022-07-29T12:40:10;34.60;34.50
17998;DHT22;9124;48.144;17.098;2022-07-29T12:43:54;34.50;34.80
17998;DHT22;9124;48.144;17.098;2022-07-29T12:47:31;34.50;35.00
17998;DHT22;9124;48.144;17.098;2022-07-29T12:51:10;34.10;34.80
17998;DHT22;9124;48.144;17.098;2022-07-29T12:54:48;33.70;35.20
17998;DHT22;9124;48.144;17.098;2022-07-29T12:58:37;33.60;35.40
17998;DHT22;9124;48.144;17.098;2022-07-29T13:02:23;33.90;35.80
17998;DHT22;9124;48.144;17.098;2022-07-29T13:06:00;34.00;35.40
17998;DHT22;9124;48.144;17.098;2022-07-29T13:09:44;34.10;35.40
17998;DHT22;9124;48.144;17.098;2022-07-29T13:13:25;34.30;35.40
17998;DHT22;9124;48.144;17.098;2022-07-29T13:20:46;34.40;35.30
17998;DHT22;9124;48.144;17.098;2022-07-29T13:24:22;34.50;35.20
17998;DHT22;9124;48.144;17.098;2022-07-29T13:27:59;34.70;35.00
17998;DHT22;9124;48.144;17.098;2022-07-29T13:31:36;35.00;35.10
17998;DHT22;9124;48.144;17.098;2022-07-29T13:35:13;34.90;34.70
17998;DHT22;9124;48.144;17.098;2022-07-29T13:38:50;34.90;34.70
17998;DHT22;9124;48.144;17.098;2022-07-29T13:42:27;34.90;34.30
17998;DHT22;9124;48.144;17.098;2022-07-29T13:46:04;34.70;34.40
17998;DHT22;9124;48.144;17.098;2022-07-29T13:49:40;34.30;34.50
17998;DHT22;9124;48.144;17.098;2022-07-29T13:53:17;34.30;34.60
17998;DHT22;9124;48.144;17.098;2022-07-29T13:56:54;34.30;34.50
17998;DHT22;9124;48.144;17.098;2022-07-29T14:00:31;34.00;34.70
17998;DHT22;9124;48.144;17.098;2022-07-29T14:04:09;33.60;34.80
17998;DHT22;9124;48.144;17.098;2022-07-29T14:07:46;33.10;35.40
17998;DHT22;9124;48.144;17.098;2022-07-29T14:11:22;32.70;36.00
17998;DHT22;9124;48.144;17.098;2022-07-29T14:14:59;32.40;36.50
17998;DHT22;9124;48.144;17.098;2022-07-29T14:18:36;32.30;36.80
17998;DHT22;9124;48.144;17.098;2022-07-29T14:22:13;32.40;37.00
17998;DHT22;9124;48.144;17.098;2022-07-29T14:25:50;32.50;37.00
17998;DHT22;9124;48.144;17.098;2022-07-29T14:29:27;32.60;36.90
17998;DHT22;9124;48.144;17.098;2022-07-29T14:33:05;32.60;36.90
17998;DHT22;9124;48.144;17.098;2022-07-29T14:36:41;32.50;36.80
17998;DHT22;9124;48.144;17.098;2022-07-29T14:40:19;32.60;37.60
17998;DHT22;9124;48.144;17.098;2022-07-29T14:43:55;32.70;37.20
17998;DHT22;9124;48.144;17.098;2022-07-29T14:47:32;32.80;37.20
17998;DHT22;9124;48.144;17.098;2022-07-29T14:51:09;32.70;37.30
17998;DHT22;9124;48.144;17.098;2022-07-29T14:54:47;32.50;37.20
17998;DHT22;9124;48.144;17.098;2022-07-29T14:58:23;32.70;37.30
17998;DHT22;9124;48.144;17.098;2022-07-29T15:02:00;32.80;37.50
17998;DHT22;9124;48.144;17.098;2022-07-29T15:05:37;32.30;37.90
17998;DHT22;9124;48.144;17.098;2022-07-29T15:09:14;31.80;38.50
17998;DHT22;9124;48.144;17.098;2022-07-29T15:12:50;31.40;39.50
17998;DHT22;9124;48.144;17.098;2022-07-29T15:16:27;30.80;41.20
17998;DHT22;9124;48.144;17.098;2022-07-29T15:20:04;30.00;43.20
17998;DHT22;9124;48.144;17.098;2022-07-29T15:23:42;29.40;45.00
17998;DHT22;9124;48.144;17.098;2022-07-29T15:27:19;28.70;46.30
17998;DHT22;9124;48.144;17.098;2022-07-29T15:30:56;28.20;47.50
17998;DHT22;9124;48.144;17.098;2022-07-29T15:34:33;27.80;48.80
17998;DHT22;9124;48.144;17.098;2022-07-29T15:38:10;27.50;49.70
17998;DHT22;9124;48.144;17.098;2022-07-29T15:41:47;27.30;50.40
17998;DHT22;9124;48.144;17.098;2022-07-29T15:45:24;27.00;51.40
17998;DHT22;9124;48.144;17.098;2022-07-29T15:49:01;26.90;52.00
17998;DHT22;9124;48.144;17.098;2022-07-29T15:52:39;26.70;52.80
17998;DHT22;9124;48.144;17.098;2022-07-29T15:56:16;26.50;53.70
17998;DHT22;9124;48.144;17.098;2022-07-29T15:59:53;26.30;54.50
17998;DHT22;9124;48.144;17.098;2022-07-29T16:03:30;26.10;55.70
17998;DHT22;9124;48.144;17.098;2022-07-29T16:07:07;25.80;56.70
17998;DHT22;9124;48.144;17.098;2022-07-29T16:10:43;25.60;57.70
17998;DHT22;9124;48.144;17.098;2022-07-29T16:14:21;25.60;58.50
17998;DHT22;9124;48.144;17.098;2022-07-29T16:17:58;25.70;59.50
17998;DHT22;9124;48.144;17.098;2022-07-29T16:21:35;25.70;60.30
17998;DHT22;9124;48.144;17.098;2022-07-29T16:25:12;25.70;61.20
17998;DHT22;9124;48.144;17.098;2022-07-29T16:28:49;25.60;61.80
17998;DHT22;9124;48.144;17.098;2022-07-29T16:32:26;25.60;62.60
17998;DHT22;9124;48.144;17.098;2022-07-29T16:36:03;25.50;63.40
17998;DHT22;9124;48.144;17.098;2022-07-29T16:39:40;25.50;64.10
17998;DHT22;9124;48.144;17.098;2022-07-29T16:43:17;25.60;64.60
17998;DHT22;9124;48.144;17.098;2022-07-29T16:46:54;25.70;64.50
17998;DHT22;9124;48.144;17.098;2022-07-29T16:50:31;25.90;65.20
17998;DHT22;9124;48.144;17.098;2022-07-29T16:54:08;26.00;64.60
17998;DHT22;9124;48.144;17.098;2022-07-29T16:57:46;26.00;64.70
17998;DHT22;9124;48.144;17.098;2022-07-29T17:01:23;25.90;64.90
17998;DHT22;9124;48.144;17.098;2022-07-29T17:04:59;25.80;64.80
17998;DHT22;9124;48.144;17.098;2022-07-29T17:08:36;25.80;65.20
17998;DHT22;9124;48.144;17.098;2022-07-29T17:12:13;25.60;65.40
17998;DHT22;9124;48.144;17.098;2022-07-29T17:15:50;25.60;65.80
17998;DHT22;9124;48.144;17.098;2022-07-29T17:19:29;25.60;66.10
17998;DHT22;9124;48.144;17.098;2022-07-29T17:23:07;25.60;66.10
17998;DHT22;9124;48.144;17.098;2022-07-29T17:26:43;25.60;66.10
17998;DHT22;9124;48.144;17.098;2022-07-29T17:30:21;25.60;66.00
17998;DHT22;9124;48.144;17.098;2022-07-29T17:33:58;25.60;66.20
17998;DHT22;9124;48.144;17.098;2022-07-29T17:37:34;25.60;66.20
17998;DHT22;9124;48.144;17.098;2022-07-29T17:41:12;25.60;66.00
17998;DHT22;9124;48.144;17.098;2022-07-29T17:44:49;25.60;66.00
17998;DHT22;9124;48.144;17.098;2022-07-29T17:48:27;25.60;65.60
17998;DHT22;9124;48.144;17.098;2022-07-29T17:52:04;25.60;65.30
17998;DHT22;9124;48.144;17.098;2022-07-29T17:55:41;25.50;65.40
17998;DHT22;9124;48.144;17.098;2022-07-29T17:59:20;25.50;65.30
17998;DHT22;9124;48.144;17.098;2022-07-29T18:02:57;25.50;65.30
17998;DHT22;9124;48.144;17.098;2022-07-29T18:06:34;25.50;65.30
17998;DHT22;9124;48.144;17.098;2022-07-29T18:10:11;25.50;65.50
17998;DHT22;9124;48.144;17.098;2022-07-29T18:13:47;25.40;65.60
17998;DHT22;9124;48.144;17.098;2022-07-29T18:17:25;25.40;65.80
17998;DHT22;9124;48.144;17.098;2022-07-29T18:21:02;25.30;65.90
17998;DHT22;9124;48.144;17.098;2022-07-29T18:24:40;25.20;66.20
17998;DHT22;9124;48.144;17.098;2022-07-29T18:28:17;25.00;66.50
17998;DHT22;9124;48.144;17.098;2022-07-29T18:31:54;24.80;66.80
17998;DHT22;9124;48.144;17.098;2022-07-29T18:35:31;24.70;67.40
17998;DHT22;9124;48.144;17.098;2022-07-29T18:39:08;24.50;67.80
17998;DHT22;9124;48.144;17.098;2022-07-29T18:42:45;24.30;68.30
17998;DHT22;9124;48.144;17.098;2022-07-29T18:46:23;24.20;68.90
17998;DHT22;9124;48.144;17.098;2022-07-29T18:50:00;24.00;69.40
17998;DHT22;9124;48.144;17.098;2022-07-29T18:53:37;23.90;69.80
17998;DHT22;9124;48.144;17.098;2022-07-29T18:57:13;23.80;70.30
17998;DHT22;9124;48.144;17.098;2022-07-29T19:00:50;23.70;70.80
17998;DHT22;9124;48.144;17.098;2022-07-29T19:04:27;23.60;71.40
17998;DHT22;9124;48.144;17.098;2022-07-29T19:08:04;23.50;71.90
17998;DHT22;9124;48.144;17.098;2022-07-29T19:11:41;23.50;72.40
17998;DHT22;9124;48.144;17.098;2022-07-29T19:15:18;23.40;72.70
17998;DHT22;9124;48.144;17.098;2022-07-29T19:18:55;23.40;73.20
17998;DHT22;9124;48.144;17.098;2022-07-29T19:22:32;23.40;74.60
17998;DHT22;9124;48.144;17.098;2022-07-29T19:26:08;23.30;74.50
17998;DHT22;9124;48.144;17.098;2022-07-29T19:29:45;23.20;75.10
17998;DHT22;9124;48.144;17.098;2022-07-29T19:33:22;23.30;75.80
17998;DHT22;9124;48.144;17.098;2022-07-29T19:37:00;23.20;76.40
17998;DHT22;9124;48.144;17.098;2022-07-29T19:40:37;23.20;76.70
17998;DHT22;9124;48.144;17.098;2022-07-29T19:44:14;23.10;77.20
17998;DHT22;9124;48.144;17.098;2022-07-29T19:47:52;23.10;77.70
17998;DHT22;9124;48.144;17.098;2022-07-29T19:51:29;23.00;78.20
17998;DHT22;9124;48.144;17.098;2022-07-29T19:55:06;23.00;78.70
17998;DHT22;9124;48.144;17.098;2022-07-29T19:58:43;23.00;79.10
17998;DHT22;9124;48.144;17.098;2022-07-29T20:02:20;23.00;79.40
17998;DHT22;9124;48.144;17.098;2022-07-29T20:05:57;23.10;79.70
17998;DHT22;9124;48.144;17.098;2022-07-29T20:09:35;23.10;79.70
17998;DHT22;9124;48.144;17.098;2022-07-29T20:13:12;23.10;79.80
17998;DHT22;9124;48.144;17.098;2022-07-29T20:16:49;23.10;79.80
17998;DHT22;9124;48.144;17.098;2022-07-29T20:20:26;23.00;80.40
17998;DHT22;9124;48.144;17.098;2022-07-29T20:24:05;23.00;79.70
17998;DHT22;9124;48.144;17.098;2022-07-29T20:27:42;23.00;79.60
17998;DHT22;9124;48.144;17.098;2022-07-29T20:31:19;23.00;79.40
17998;DHT22;9124;48.144;17.098;2022-07-29T20:34:56;23.00;79.10
17998;DHT22;9124;48.144;17.098;2022-07-29T20:38:33;23.00;78.90
17998;DHT22;9124;48.144;17.098;2022-07-29T20:42:10;23.00;78.70
17998;DHT22;9124;48.144;17.098;2022-07-29T20:45:47;23.00;78.70
17998;DHT22;9124;48.144;17.098;2022-07-29T20:49:24;22.90;78.50
17998;DHT22;9124;48.144;17.098;2022-07-29T20:53:00;23.00;78.30
17998;DHT22;9124;48.144;17.098;2022-07-29T20:56:37;23.00;78.00
17998;DHT22;9124;48.144;17.098;2022-07-29T21:00:14;23.10;77.60
17998;DHT22;9124;48.144;17.098;2022-07-29T21:03:51;23.10;77.30
17998;DHT22;9124;48.144;17.098;2022-07-29T21:07:28;23.10;77.00
17998;DHT22;9124;48.144;17.098;2022-07-29T21:11:05;23.20;76.50
17998;DHT22;9124;48.144;17.098;2022-07-29T21:14:41;23.30;76.20
17998;DHT22;9124;48.144;17.098;2022-07-29T21:18:24;23.30;75.90
17998;DHT22;9124;48.144;17.098;2022-07-29T21:22:08;23.30;75.60
17998;DHT22;9124;48.144;17.098;2022-07-29T21:25:45;23.30;75.50
17998;DHT22;9124;48.144;17.098;2022-07-29T21:29:21;23.30;75.30
17998;DHT22;9124;48.144;17.098;2022-07-29T21:32:59;23.30;75.20
17998;DHT22;9124;48.144;17.098;2022-07-29T21:36:36;23.20;75.10
17998;DHT22;9124;48.144;17.098;2022-07-29T21:40:13;23.20;75.20
17998;DHT22;9124;48.144;17.098;2022-07-29T21:43:49;23.20;75.30
17998;DHT22;9124;48.144;17.098;2022-07-29T21:47:26;23.10;75.30
17998;DHT22;9124;48.144;17.098;2022-07-29T21:51:04;23.10;75.60
17998;DHT22;9124;48.144;17.098;2022-07-29T21:54:41;23.00;75.80
17998;DHT22;9124;48.144;17.098;2022-07-29T21:58:17;22.90;76.10
17998;DHT22;9124;48.144;17.098;2022-07-29T22:01:54;22.90;76.40
17998;DHT22;9124;48.144;17.098;2022-07-29T22:05:31;22.80;76.70
17998;DHT22;9124;48.144;17.098;2022-07-29T22:09:08;22.70;77.00
17998;DHT22;9124;48.144;17.098;2022-07-29T22:12:44;22.70;77.30
17998;DHT22;9124;48.144;17.098;2022-07-29T22:16:21;22.60;77.50
17998;DHT22;9124;48.144;17.098;2022-07-29T22:19:58;22.60;77.90
17998;DHT22;9124;48.144;17.098;2022-07-29T22:23:35;22.50;78.20
17998;DHT22;9124;48.144;17.098;2022-07-29T22:27:12;22.50;78.50
17998;DHT22;9124;48.144;17.098;2022-07-29T22:30:49;22.40;78.90
17998;DHT22;9124;48.144;17.098;2022-07-29T22:34:26;22.40;79.10
17998;DHT22;9124;48.144;17.098;2022-07-29T22:38:03;22.40;79.30
17998;DHT22;9124;48.144;17.098;2022-07-29T22:41:39;22.30;79.50
17998;DHT22;9124;48.144;17.098;2022-07-29T22:45:17;22.30;79.70
17998;DHT22;9124;48.144;17.098;2022-07-29T22:48:53;22.30;79.80
17998;DHT22;9124;48.144;17.098;2022-07-29T22:52:30;22.30;79.80
17998;DHT22;9124;48.144;17.098;2022-07-29T22:56:06;22.30;79.90
17998;DHT22;9124;48.144;17.098;2022-07-29T22:59:44;22.30;79.90
17998;DHT22;9124;48.144;17.098;2022-07-29T23:03:21;22.30;79.90
17998;DHT22;9124;48.144;17.098;2022-07-29T23:06:58;22.30;79.90
17998;DHT22;9124;48.144;17.098;2022-07-29T23:10:34;22.20;80.00
17998;DHT22;9124;48.144;17.098;2022-07-29T23:14:11;22.20;80.10
17998;DHT22;9124;48.144;17.098;2022-07-29T23:17:48;22.20;80.30
17998;DHT22;9124;48.144;17.098;2022-07-29T23:21:25;22.20;80.30
17998;DHT22;9124;48.144;17.098;2022-07-29T23:25:02;22.10;80.40
17998;DHT22;9124;48.144;17.098;2022-07-29T23:28:40;22.10;80.50
17998;DHT22;9124;48.144;17.098;2022-07-29T23:32:17;22.10;80.60
17998;DHT22;9124;48.144;17.098;2022-07-29T23:35:54;22.00;80.80